Terminal Aerodrome Forecast
Issued by NWS North Platte, NE

Home | Current Version | Previous Version | Graphics & Text | Print | Product List | Glossary On
Versions: 1 2 3 4 5 6 7 8 9 10 11 12
408
FTUS43 KLBF 092324
TAFVTN
TAF
KVTN 092324Z 1000/1024 29008KT P6SM OVC060
     FM100700 26007KT P6SM SCT100
     FM101700 32015G24KT P6SM FEW200=

USA.gov is the U.S. government's official web portal to all federal, state and local government web resources and services.